DW2468 Weather Reports


Display with metric or nautical units.
time (UTC)temp
F
wind
direction
speed
MPH
gust
MPH
rain 1hr
in
rain 24hr
in
rain mn
in
humidity
%
barometer
mb
20181016071516 38 302 0.0 0.0 0.00 0.00 0.00 93 1025.1
20181016070025 38 303 0.0 0.0 0.00 0.00 0.00 93 1025.0
20181016064514 39 303 0.0 0.0 0.00 0.00 0.00 93 1025.2
20181016063020 39 302 0.0 0.0 0.00 0.00 0.00 92 1025.1
20181016061520 40 302 0.0 0.0 0.00 0.00 0.00 92 1025.2
20181016060041 40 303 0.0 0.0 0.00 0.00 0.00 93 1025.1
20181016054511 40 302 0.0 0.0 0.00 0.00 0.00 92 1025.0
20181016053010 41 302 0.0 0.0 0.00 0.00 0.00 92 1025.0
20181016051510 41 303 0.0 0.0 0.00 0.00 0.00 92 1025.0
20181016050024 42 303 0.0 0.0 0.00 0.00 0.00 92 1024.8
20181016044507 42 302 0.0 0.0 0.00 0.00 0.00 92 1024.8
20181016043009 42 303 0.0 0.0 0.00 0.00 0.00 91 1024.7
20181016041508 43 303 0.0 0.0 0.00 0.00 0.00 91 1024.7
20181016040015 44 303 0.0 0.0 0.00 0.00 0.00 91 1024.6
20181016034509 45 303 0.0 0.0 0.00 0.00 0.00 90 1024.6
20181016033015 45 303 0.0 0.0 0.00 0.00 0.00 89 1024.7
20181016031514 46 303 0.0 0.0 0.00 0.00 0.00 89 1024.5
20181016030005 46 303 0.0 0.0 0.00 0.00 0.00 88 1024.5
20181016024529 47 303 0.0 0.0 0.00 0.00 0.00 86 1024.3
20181016023030 48 303 0.0 0.0 0.00 0.00 0.00 84 1024.2
20181016021509 49 303 0.0 0.0 0.00 0.00 0.00 82 1024.3
20181016020004 50 303 0.0 0.0 0.00 0.00 0.00 80 1024.4
20181016014505 52 303 0.0 0.0 0.00 0.00 0.00 78 1024.3
20181016013004 54 303 0.0 0.0 0.00 0.00 0.00 76 1024.3
20181016011734 56 303 0.0 0.0 0.00 0.00 0.00 72 1024.3
20181016010146 59 303 0.0 0.0 0.00 0.00 0.00 67 1024.5
20181016004746 61 303 0.0 0.0 0.00 0.00 0.00 63 1024.2
20181016003133 63 303 0.0 0.0 0.00 0.00 0.00 61 1024.2
20181016001746 64 303 0.0 5.0 0.00 0.00 0.00 60 1024.4
20181016000119 64 303 0.0 1.0 0.00 0.00 0.00 60 1024.5
20181015234639 64 303 0.0 5.0 0.00 0.00 0.00 59 1024.7
20181015233137 64 304 0.0 1.0 0.00 0.00 0.00 58 1024.8
20181015231602 65 304 0.0 5.0 0.00 0.00 0.00 57 1024.9
20181015230159 65 306 0.0 4.0 0.00 0.00 0.00 56 1025.2
20181015224742 65 306 0.0 4.0 0.00 0.00 0.00 56 1025.2
20181015223111 64 306 0.0 6.0 0.00 0.00 0.00 55 1025.6
20181015221720 64 305 0.0 3.0 0.00 0.00 0.00 55 1025.5
20181015220116 64 305 0.0 6.0 0.00 0.00 0.00 58 1025.5
20181015214608 63 348 0.0 3.0 0.00 0.00 0.00 55 1025.4
20181015213118 63 348 0.0 5.0 0.00 0.00 0.00 53 1025.4
20181015211555 62 348 0.0 5.0 0.00 0.00 0.00 54 1025.7
20181015210051 62 348 3.0 5.0 0.00 0.00 0.00 54 1025.9
20181015204626 62 343 1.0 6.0 0.00 0.00 0.00 55 1026.0
20181015203059 61 350 0.0 1.0 0.00 0.00 0.00 55 1025.9
20181015201556 60 350 0.0 4.0 0.00 0.00 0.00 57 1026.1
20181015200114 60 350 0.0 4.0 0.00 0.00 0.00 58 1026.3
20181015194608 59 350 3.0 6.0 0.00 0.00 0.00 59 1026.5
20181015193034 59 349 0.0 5.0 0.00 0.00 0.00 61 1026.7
20181015191537 57 349 0.0 4.0 0.00 0.00 0.00 64 1026.8
20181015190019 56 348 3.0 7.0 0.00 0.00 0.00 64 1026.9
20181015184514 56 343 0.0 6.0 0.00 0.00 0.00 68 1026.8
20181015183012 55 343 0.0 5.0 0.00 0.00 0.00 69 1026.8
20181015181505 54 342 2.0 5.0 0.00 0.00 0.00 71 1026.9
20181015174619 51 340 1.0 7.0 0.00 0.00 0.00 81 1027.2
20181015173139 49 338 3.0 6.0 0.00 0.00 0.00 86 1027.1
20181015171551 47 334 4.0 7.0 0.00 0.00 0.00 92 1027.3
20181015170125 45 327 1.0 6.0 0.00 0.00 0.00 96 1027.1
20181015164510 43 319 0.0 1.0 0.00 0.00 0.00 97 1027.2
20181015163002 41 319 0.0 0.0 0.00 0.00 0.00 97 1027.0
20181015161640 39 319 0.0 0.0 0.00 0.00 0.00 96 1026.9
20181015160133 36 319 0.0 0.0 0.00 0.00 0.00 96 1027.0
20181015154636 34 319 0.0 0.0 0.00 0.00 0.00 95 1027.2
20181015153113 33 319 0.0 0.0 0.00 0.00 0.00 95 1026.9
20181015151643 33 319 0.0 0.0 0.00 0.00 0.00 95 1027.0
20181015150109 33 319 0.0 0.0 0.00 0.00 0.00 95 1026.9
20181015144656 32 319 0.0 0.0 0.00 0.00 0.00 94 1026.6
20181015143126 32 319 0.0 0.0 0.00 0.00 0.00 94 1026.7
20181015141601 33 319 0.0 0.0 0.00 0.00 0.00 94 1026.8
20181015140127 33 319 0.0 0.0 0.00 0.00 0.00 94 1026.9
20181015134612 33 319 0.0 0.0 0.00 0.00 0.00 94 1026.6
20181015133057 33 319 0.0 0.0 0.00 0.00 0.00 94 1026.7
20181015131645 34 319 0.0 0.0 0.00 0.00 0.00 95 1026.6
20181015130114 34 319 0.0 0.0 0.00 0.00 0.00 94 1026.6
20181015124549 34 319 0.0 0.0 0.00 0.00 0.00 94 1026.6
20181015123100 35 319 0.0 0.0 0.00 0.00 0.00 94 1026.8
20181015121623 35 319 0.0 0.0 0.00 0.00 0.00 94 1026.9
20181015120049 34 319 0.0 0.0 0.00 0.00 0.00 94 1027.1
20181015114624 35 319 0.0 0.0 0.00 0.00 0.00 94 1027.1
20181015113124 35 319 0.0 0.0 0.00 0.00 0.00 94 1026.9
20181015111543 34 319 0.0 0.0 0.00 0.00 0.00 94 1026.8
20181015110055 35 319 0.0 0.0 0.00 0.00 0.00 93 1026.9
20181015104606 35 319 0.0 0.0 0.00 0.00 0.00 93 1026.8
20181015103035 36 319 0.0 0.0 0.00 0.00 0.00 94 1026.9
20181015101555 36 319 0.0 0.0 0.00 0.00 0.00 94 1027.0
20181015100054 36 319 0.0 0.0 0.00 0.00 0.00 93 1027.0
20181015094543 36 319 0.0 0.0 0.00 0.00 0.00 94 1026.9
20181015093050 36 319 0.0 0.0 0.00 0.00 0.00 94 1026.8
20181015091530 36 319 0.0 0.0 0.00 0.00 0.00 93 1026.8
20181015090022 36 319 0.0 0.0 0.00 0.00 0.00 93 1026.8
20181015084539 36 319 0.0 0.0 0.00 0.00 0.00 93 1026.9
20181015083022 37 319 0.0 0.0 0.00 0.00 0.00 93 1026.9
20181015081539 37 319 0.0 0.0 0.00 0.00 0.00 93 1026.7
20181015080024 37 319 0.0 0.0 0.00 0.00 0.00 92 1026.9
20181015074532 38 319 0.0 0.0 0.00 0.00 0.00 94 1026.9
20181015073036 37 319 0.0 0.0 0.00 0.00 0.00 92 1026.7